sensor_id;sensor_type;location;lat;lon;timestamp;temperature;humidity
5605;DHT22;9297;47.258;11.362;2024-01-11T00:22:59;-1.90;91.30
5605;DHT22;9297;47.258;11.362;2024-01-11T00:25:26;-1.90;90.80
5605;DHT22;9297;47.258;11.362;2024-01-11T00:27:53;-2.00;90.90
5605;DHT22;9297;47.258;11.362;2024-01-11T01:08:03;-1.50;94.20
5605;DHT22;9297;47.258;11.362;2024-01-11T01:10:30;-1.50;94.20
5605;DHT22;9297;47.258;11.362;2024-01-11T01:12:58;-1.50;93.90
5605;DHT22;9297;47.258;11.362;2024-01-11T01:15:25;-1.40;94.30
5605;DHT22;9297;47.258;11.362;2024-01-11T01:17:52;-1.50;97.00
5605;DHT22;9297;47.258;11.362;2024-01-11T01:20:20;-1.40;97.90
5605;DHT22;9297;47.258;11.362;2024-01-11T01:22:49;-1.40;98.30
5605;DHT22;9297;47.258;11.362;2024-01-11T01:25:18;-1.40;98.90
5605;DHT22;9297;47.258;11.362;2024-01-11T01:27:45;-1.40;99.90
5605;DHT22;9297;47.258;11.362;2024-01-11T01:30:14;-1.40;99.90
5605;DHT22;9297;47.258;11.362;2024-01-11T01:32:42;-1.40;99.90
5605;DHT22;9297;47.258;11.362;2024-01-11T01:37:51;-1.50;99.90
5605;DHT22;9297;47.258;11.362;2024-01-11T01:56:35;-1.40;99.90
5605;DHT22;9297;47.258;11.362;2024-01-11T01:59:03;-1.40;99.90
5605;DHT22;9297;47.258;11.362;2024-01-11T02:04:13;-1.40;99.10
5605;DHT22;9297;47.258;11.362;2024-01-11T02:06:57;-1.30;99.00
5605;DHT22;9297;47.258;11.362;2024-01-11T02:09:24;-1.40;99.70
5605;DHT22;9297;47.258;11.362;2024-01-11T02:17:17;-1.30;98.50
5605;DHT22;9297;47.258;11.362;2024-01-11T02:19:45;-1.30;99.50
5605;DHT22;9297;47.258;11.362;2024-01-11T02:22:17;-1.30;99.20
5605;DHT22;9297;47.258;11.362;2024-01-11T02:24:49;-1.30;99.10
5605;DHT22;9297;47.258;11.362;2024-01-11T02:27:16;-1.30;99.00
5605;DHT22;9297;47.258;11.362;2024-01-11T02:29:43;-1.20;98.60
5605;DHT22;9297;47.258;11.362;2024-01-11T02:32:10;-1.20;97.70
5605;DHT22;9297;47.258;11.362;2024-01-11T02:34:37;-1.20;97.40
5605;DHT22;9297;47.258;11.362;2024-01-11T02:37:05;-1.30;97.40
5605;DHT22;9297;47.258;11.362;2024-01-11T02:39:33;-1.20;96.90
5605;DHT22;9297;47.258;11.362;2024-01-11T02:42:01;-1.30;96.70
5605;DHT22;9297;47.258;11.362;2024-01-11T02:44:28;-1.20;96.90
5605;DHT22;9297;47.258;11.362;2024-01-11T02:46:55;-1.20;96.40
5605;DHT22;9297;47.258;11.362;2024-01-11T02:49:22;-1.20;97.10
5605;DHT22;9297;47.258;11.362;2024-01-11T02:51:52;-1.20;97.10
5605;DHT22;9297;47.258;11.362;2024-01-11T02:54:19;-1.20;97.00
5605;DHT22;9297;47.258;11.362;2024-01-11T02:56:46;-1.10;96.50
5605;DHT22;9297;47.258;11.362;2024-01-11T02:59:15;-1.20;96.90
5605;DHT22;9297;47.258;11.362;2024-01-11T03:01:42;-1.20;96.60
5605;DHT22;9297;47.258;11.362;2024-01-11T03:04:09;-1.10;95.90
5605;DHT22;9297;47.258;11.362;2024-01-11T03:06:36;-1.10;95.60
5605;DHT22;9297;47.258;11.362;2024-01-11T03:09:03;-1.10;95.80
5605;DHT22;9297;47.258;11.362;2024-01-11T03:11:30;-1.20;95.90
5605;DHT22;9297;47.258;11.362;2024-01-11T03:13:57;-1.20;95.60
5605;DHT22;9297;47.258;11.362;2024-01-11T03:16:25;-1.20;95.80
5605;DHT22;9297;47.258;11.362;2024-01-11T03:18:52;-1.20;96.20
5605;DHT22;9297;47.258;11.362;2024-01-11T03:21:19;-1.20;96.60
5605;DHT22;9297;47.258;11.362;2024-01-11T03:23:46;-1.20;96.90
5605;DHT22;9297;47.258;11.362;2024-01-11T03:26:15;-1.20;97.60
5605;DHT22;9297;47.258;11.362;2024-01-11T03:28:43;-1.20;95.80
5605;DHT22;9297;47.258;11.362;2024-01-11T03:31:10;-1.10;95.80
5605;DHT22;9297;47.258;11.362;2024-01-11T03:33:39;-1.20;95.20
5605;DHT22;9297;47.258;11.362;2024-01-11T03:36:07;-1.20;95.00
5605;DHT22;9297;47.258;11.362;2024-01-11T03:38:34;-1.30;95.30
5605;DHT22;9297;47.258;11.362;2024-01-11T03:41:01;-1.20;97.00
5605;DHT22;9297;47.258;11.362;2024-01-11T03:43:28;-1.30;96.20
5605;DHT22;9297;47.258;11.362;2024-01-11T03:45:55;-1.20;97.60
5605;DHT22;9297;47.258;11.362;2024-01-11T03:48:22;-1.30;98.20
5605;DHT22;9297;47.258;11.362;2024-01-11T03:50:51;-1.40;98.80
5605;DHT22;9297;47.258;11.362;2024-01-11T03:53:18;-1.30;97.30
5605;DHT22;9297;47.258;11.362;2024-01-11T03:55:45;-1.30;96.50
5605;DHT22;9297;47.258;11.362;2024-01-11T03:58:12;-1.30;96.50
5605;DHT22;9297;47.258;11.362;2024-01-11T04:00:39;-1.20;95.30
5605;DHT22;9297;47.258;11.362;2024-01-11T04:03:06;-1.30;95.30
5605;DHT22;9297;47.258;11.362;2024-01-11T04:05:33;-1.20;95.70
5605;DHT22;9297;47.258;11.362;2024-01-11T04:08:05;-1.20;95.50
5605;DHT22;9297;47.258;11.362;2024-01-11T04:10:32;-1.20;95.10
5605;DHT22;9297;47.258;11.362;2024-01-11T04:12:59;-1.20;95.00
5605;DHT22;9297;47.258;11.362;2024-01-11T04:15:26;-1.30;96.10
5605;DHT22;9297;47.258;11.362;2024-01-11T04:17:53;-1.30;96.00
5605;DHT22;9297;47.258;11.362;2024-01-11T04:20:20;-1.40;95.60
5605;DHT22;9297;47.258;11.362;2024-01-11T04:22:47;-1.40;96.30
5605;DHT22;9297;47.258;11.362;2024-01-11T04:25:15;-1.40;96.40
5605;DHT22;9297;47.258;11.362;2024-01-11T04:27:42;-1.40;96.90
5605;DHT22;9297;47.258;11.362;2024-01-11T04:30:10;-1.30;97.00
5605;DHT22;9297;47.258;11.362;2024-01-11T04:32:37;-1.30;94.80
5605;DHT22;9297;47.258;11.362;2024-01-11T04:35:05;-1.30;94.80
5605;DHT22;9297;47.258;11.362;2024-01-11T04:37:32;-1.20;94.10
5605;DHT22;9297;47.258;11.362;2024-01-11T04:39:59;-1.30;94.80
5605;DHT22;9297;47.258;11.362;2024-01-11T04:42:28;-1.40;96.20
5605;DHT22;9297;47.258;11.362;2024-01-11T04:44:55;-1.40;95.80
5605;DHT22;9297;47.258;11.362;2024-01-11T04:47:22;-1.50;95.70
5605;DHT22;9297;47.258;11.362;2024-01-11T04:49:49;-1.50;96.70
5605;DHT22;9297;47.258;11.362;2024-01-11T04:52:16;-1.40;95.60
5605;DHT22;9297;47.258;11.362;2024-01-11T04:54:43;-1.50;97.80
5605;DHT22;9297;47.258;11.362;2024-01-11T04:57:09;-1.50;98.30
5605;DHT22;9297;47.258;11.362;2024-01-11T04:59:38;-1.40;98.10
5605;DHT22;9297;47.258;11.362;2024-01-11T05:02:05;-1.40;97.30
5605;DHT22;9297;47.258;11.362;2024-01-11T05:04:32;-1.30;95.80
5605;DHT22;9297;47.258;11.362;2024-01-11T05:06:59;-1.40;94.70
5605;DHT22;9297;47.258;11.362;2024-01-11T05:09:26;-1.40;94.10
5605;DHT22;9297;47.258;11.362;2024-01-11T05:11:53;-1.40;94.50
5605;DHT22;9297;47.258;11.362;2024-01-11T05:14:20;-1.40;94.50
5605;DHT22;9297;47.258;11.362;2024-01-11T05:16:48;-1.40;94.30
5605;DHT22;9297;47.258;11.362;2024-01-11T05:19:15;-1.40;95.00
5605;DHT22;9297;47.258;11.362;2024-01-11T05:21:42;-1.50;94.60
5605;DHT22;9297;47.258;11.362;2024-01-11T05:24:09;-1.40;95.10
5605;DHT22;9297;47.258;11.362;2024-01-11T05:26:38;-1.50;94.60
5605;DHT22;9297;47.258;11.362;2024-01-11T05:29:05;-1.40;95.20
5605;DHT22;9297;47.258;11.362;2024-01-11T05:31:32;-1.50;95.30
5605;DHT22;9297;47.258;11.362;2024-01-11T05:34:01;-1.40;95.60
5605;DHT22;9297;47.258;11.362;2024-01-11T05:36:29;-1.40;95.40
5605;DHT22;9297;47.258;11.362;2024-01-11T05:38:56;-1.40;96.40
5605;DHT22;9297;47.258;11.362;2024-01-11T05:41:23;-1.50;97.10
5605;DHT22;9297;47.258;11.362;2024-01-11T05:43:50;-1.40;96.20
5605;DHT22;9297;47.258;11.362;2024-01-11T05:46:17;-1.30;95.10
5605;DHT22;9297;47.258;11.362;2024-01-11T05:48:43;-1.40;94.40
5605;DHT22;9297;47.258;11.362;2024-01-11T05:51:12;-1.40;94.10
5605;DHT22;9297;47.258;11.362;2024-01-11T05:53:39;-1.40;93.90
5605;DHT22;9297;47.258;11.362;2024-01-11T05:56:09;-1.40;93.50
5605;DHT22;9297;47.258;11.362;2024-01-11T05:58:37;-1.30;93.80
5605;DHT22;9297;47.258;11.362;2024-01-11T06:01:07;-1.30;93.10
5605;DHT22;9297;47.258;11.362;2024-01-11T06:03:34;-1.40;92.90
5605;DHT22;9297;47.258;11.362;2024-01-11T06:06:03;2.40;99.90
5605;DHT22;9297;47.258;11.362;2024-01-11T06:08:32;4.00;99.90
5605;DHT22;9297;47.258;11.362;2024-01-11T06:10:59;3.90;99.90
5605;DHT22;9297;47.258;11.362;2024-01-11T06:13:26;1.80;99.90
5605;DHT22;9297;47.258;11.362;2024-01-11T06:15:53;1.20;90.30
5605;DHT22;9297;47.258;11.362;2024-01-11T06:18:20;0.50;86.10
5605;DHT22;9297;47.258;11.362;2024-01-11T06:20:47;0.20;87.40
5605;DHT22;9297;47.258;11.362;2024-01-11T06:23:15;-0.10;87.90
5605;DHT22;9297;47.258;11.362;2024-01-11T06:25:43;-0.40;87.40
5605;DHT22;9297;47.258;11.362;2024-01-11T06:28:10;-0.60;89.80
5605;DHT22;9297;47.258;11.362;2024-01-11T06:30:37;-0.70;90.60
5605;DHT22;9297;47.258;11.362;2024-01-11T06:33:04;-0.80;90.20
5605;DHT22;9297;47.258;11.362;2024-01-11T06:35:31;-0.90;92.00
5605;DHT22;9297;47.258;11.362;2024-01-11T06:37:58;-1.10;93.10
5605;DHT22;9297;47.258;11.362;2024-01-11T06:40:25;-1.30;94.10
5605;DHT22;9297;47.258;11.362;2024-01-11T06:42:53;-1.30;94.60
5605;DHT22;9297;47.258;11.362;2024-01-11T06:45:20;-1.30;94.60
5605;DHT22;9297;47.258;11.362;2024-01-11T06:47:47;-1.20;97.40
5605;DHT22;9297;47.258;11.362;2024-01-11T06:50:15;-1.20;98.30
5605;DHT22;9297;47.258;11.362;2024-01-11T06:52:42;-1.10;99.90
5605;DHT22;9297;47.258;11.362;2024-01-11T06:55:09;-1.10;97.70
5605;DHT22;9297;47.258;11.362;2024-01-11T06:57:36;-1.30;98.20
5605;DHT22;9297;47.258;11.362;2024-01-11T07:00:05;-1.20;98.30
5605;DHT22;9297;47.258;11.362;2024-01-11T07:02:33;-1.30;95.80
5605;DHT22;9297;47.258;11.362;2024-01-11T07:05:00;-1.20;94.20
5605;DHT22;9297;47.258;11.362;2024-01-11T07:07:26;-1.30;93.60
5605;DHT22;9297;47.258;11.362;2024-01-11T07:09:53;-1.30;94.20
5605;DHT22;9297;47.258;11.362;2024-01-11T07:12:20;-1.30;93.30
5605;DHT22;9297;47.258;11.362;2024-01-11T07:14:47;-1.40;93.00
5605;DHT22;9297;47.258;11.362;2024-01-11T07:17:16;-1.50;94.60
5605;DHT22;9297;47.258;11.362;2024-01-11T07:19:43;-1.70;95.60
5605;DHT22;9297;47.258;11.362;2024-01-11T07:22:10;-1.80;97.10
5605;DHT22;9297;47.258;11.362;2024-01-11T07:24:37;-1.70;96.80
5605;DHT22;9297;47.258;11.362;2024-01-11T07:27:05;-1.90;97.90
5605;DHT22;9297;47.258;11.362;2024-01-11T07:29:33;-1.90;97.60
5605;DHT22;9297;47.258;11.362;2024-01-11T07:32:00;-1.80;96.70
5605;DHT22;9297;47.258;11.362;2024-01-11T07:34:29;-1.80;95.30
5605;DHT22;9297;47.258;11.362;2024-01-11T07:36:56;-1.60;94.80
5605;DHT22;9297;47.258;11.362;2024-01-11T07:39:23;-1.70;93.80
5605;DHT22;9297;47.258;11.362;2024-01-11T07:41:50;-1.70;95.00
5605;DHT22;9297;47.258;11.362;2024-01-11T07:44:17;-1.80;95.80
5605;DHT22;9297;47.258;11.362;2024-01-11T07:46:44;-2.00;96.00
5605;DHT22;9297;47.258;11.362;2024-01-11T07:49:20;-1.90;98.60
5605;DHT22;9297;47.258;11.362;2024-01-11T07:51:48;-1.70;97.90
5605;DHT22;9297;47.258;11.362;2024-01-11T07:54:15;-1.80;97.30
5605;DHT22;9297;47.258;11.362;2024-01-11T07:56:42;-1.70;98.00
5605;DHT22;9297;47.258;11.362;2024-01-11T07:59:10;-1.70;97.20
5605;DHT22;9297;47.258;11.362;2024-01-11T08:01:37;-1.60;97.30
5605;DHT22;9297;47.258;11.362;2024-01-11T08:04:04;-1.50;96.40
5605;DHT22;9297;47.258;11.362;2024-01-11T08:06:31;-1.50;94.60
5605;DHT22;9297;47.258;11.362;2024-01-11T08:08:59;-1.50;94.80
5605;DHT22;9297;47.258;11.362;2024-01-11T08:11:26;-1.60;95.10
5605;DHT22;9297;47.258;11.362;2024-01-11T08:13:58;-1.60;96.20
5605;DHT22;9297;47.258;11.362;2024-01-11T08:16:25;-1.60;96.00
5605;DHT22;9297;47.258;11.362;2024-01-11T08:18:52;-1.60;95.30
5605;DHT22;9297;47.258;11.362;2024-01-11T08:21:19;-1.50;94.90
5605;DHT22;9297;47.258;11.362;2024-01-11T08:23:46;-1.60;94.20
5605;DHT22;9297;47.258;11.362;2024-01-11T08:26:14;-1.50;94.70
5605;DHT22;9297;47.258;11.362;2024-01-11T08:28:42;-1.60;94.00
5605;DHT22;9297;47.258;11.362;2024-01-11T08:31:09;-1.60;95.40
5605;DHT22;9297;47.258;11.362;2024-01-11T08:33:36;-1.70;98.30
5605;DHT22;9297;47.258;11.362;2024-01-11T08:36:04;-2.10;98.30
5605;DHT22;9297;47.258;11.362;2024-01-11T08:38:32;-1.90;99.90
5605;DHT22;9297;47.258;11.362;2024-01-11T08:40:59;-1.80;97.90
5605;DHT22;9297;47.258;11.362;2024-01-11T08:43:27;-1.60;96.80
5605;DHT22;9297;47.258;11.362;2024-01-11T08:45:54;-1.40;94.50
5605;DHT22;9297;47.258;11.362;2024-01-11T08:48:21;-1.30;94.10
5605;DHT22;9297;47.258;11.362;2024-01-11T08:50:49;-1.40;92.90
5605;DHT22;9297;47.258;11.362;2024-01-11T08:53:16;-1.40;93.20
5605;DHT22;9297;47.258;11.362;2024-01-11T08:55:43;-1.50;92.20
5605;DHT22;9297;47.258;11.362;2024-01-11T08:58:12;-1.40;93.80
5605;DHT22;9297;47.258;11.362;2024-01-11T09:00:41;-1.40;94.10
5605;DHT22;9297;47.258;11.362;2024-01-11T09:03:08;-1.40;93.40
5605;DHT22;9297;47.258;11.362;2024-01-11T09:05:35;-1.40;92.00
5605;DHT22;9297;47.258;11.362;2024-01-11T09:08:02;-1.30;93.80
5605;DHT22;9297;47.258;11.362;2024-01-11T09:10:29;-1.30;92.50
5605;DHT22;9297;47.258;11.362;2024-01-11T09:12:59;-1.20;91.80
5605;DHT22;9297;47.258;11.362;2024-01-11T09:15:26;-1.10;90.90
5605;DHT22;9297;47.258;11.362;2024-01-11T09:17:54;-1.10;90.70
5605;DHT22;9297;47.258;11.362;2024-01-11T09:20:21;-1.00;91.80
5605;DHT22;9297;47.258;11.362;2024-01-11T09:22:48;-1.00;90.90
5605;DHT22;9297;47.258;11.362;2024-01-11T09:25:16;-0.90;89.20
5605;DHT22;9297;47.258;11.362;2024-01-11T09:27:43;-0.90;89.00
5605;DHT22;9297;47.258;11.362;2024-01-11T09:30:10;-1.00;87.20
5605;DHT22;9297;47.258;11.362;2024-01-11T09:32:37;-1.10;88.70
5605;DHT22;9297;47.258;11.362;2024-01-11T09:35:07;-1.00;88.00
5605;DHT22;9297;47.258;11.362;2024-01-11T09:37:36;-1.00;88.30
5605;DHT22;9297;47.258;11.362;2024-01-11T09:40:03;-1.00;90.30
5605;DHT22;9297;47.258;11.362;2024-01-11T09:42:30;-0.90;88.60
5605;DHT22;9297;47.258;11.362;2024-01-11T09:44:58;-0.90;89.30
5605;DHT22;9297;47.258;11.362;2024-01-11T09:47:26;-0.80;89.60
5605;DHT22;9297;47.258;11.362;2024-01-11T09:49:56;-0.70;88.50
5605;DHT22;9297;47.258;11.362;2024-01-11T09:52:26;-0.80;86.50
5605;DHT22;9297;47.258;11.362;2024-01-11T09:54:54;-0.70;87.40
5605;DHT22;9297;47.258;11.362;2024-01-11T09:57:24;-0.60;86.60
5605;DHT22;9297;47.258;11.362;2024-01-11T09:59:54;-0.60;86.90
5605;DHT22;9297;47.258;11.362;2024-01-11T10:02:23;-0.40;87.20
5605;DHT22;9297;47.258;11.362;2024-01-11T10:04:50;-0.20;85.70
5605;DHT22;9297;47.258;11.362;2024-01-11T10:07:17;-0.20;85.10
5605;DHT22;9297;47.258;11.362;2024-01-11T10:09:46;-0.10;85.00
5605;DHT22;9297;47.258;11.362;2024-01-11T10:12:13;-0.20;84.20
5605;DHT22;9297;47.258;11.362;2024-01-11T10:14:40;-0.20;83.20
5605;DHT22;9297;47.258;11.362;2024-01-11T10:17:07;-0.30;85.90
5605;DHT22;9297;47.258;11.362;2024-01-11T10:19:36;-0.20;84.90
5605;DHT22;9297;47.258;11.362;2024-01-11T10:22:04;-0.40;84.50
5605;DHT22;9297;47.258;11.362;2024-01-11T10:24:31;-0.50;86.40
5605;DHT22;9297;47.258;11.362;2024-01-11T10:27:00;-0.40;86.40
5605;DHT22;9297;47.258;11.362;2024-01-11T10:29:28;-0.30;87.20
5605;DHT22;9297;47.258;11.362;2024-01-11T10:31:56;-0.20;84.90
5605;DHT22;9297;47.258;11.362;2024-01-11T10:34:24;-0.10;84.50
5605;DHT22;9297;47.258;11.362;2024-01-11T10:36:51;-0.30;85.50
5605;DHT22;9297;47.258;11.362;2024-01-11T10:39:24;-0.20;85.70
5605;DHT22;9297;47.258;11.362;2024-01-11T10:41:52;0.00;85.20
5605;DHT22;9297;47.258;11.362;2024-01-11T10:44:22;0.10;84.50
5605;DHT22;9297;47.258;11.362;2024-01-11T10:46:50;0.00;83.60
5605;DHT22;9297;47.258;11.362;2024-01-11T10:49:18;0.10;83.70
5605;DHT22;9297;47.258;11.362;2024-01-11T10:51:52;0.00;84.00
5605;DHT22;9297;47.258;11.362;2024-01-11T10:54:20;0.00;82.40
5605;DHT22;9297;47.258;11.362;2024-01-11T10:56:48;0.40;83.30
5605;DHT22;9297;47.258;11.362;2024-01-11T10:59:18;0.60;82.00
5605;DHT22;9297;47.258;11.362;2024-01-11T11:01:48;0.80;80.40
5605;DHT22;9297;47.258;11.362;2024-01-11T11:04:15;0.70;80.00
5605;DHT22;9297;47.258;11.362;2024-01-11T11:06:43;1.00;79.20
5605;DHT22;9297;47.258;11.362;2024-01-11T11:09:10;1.10;79.50
5605;DHT22;9297;47.258;11.362;2024-01-11T11:11:38;1.30;78.60
5605;DHT22;9297;47.258;11.362;2024-01-11T11:14:06;1.50;77.20
5605;DHT22;9297;47.258;11.362;2024-01-11T11:16:34;1.60;76.20
5605;DHT22;9297;47.258;11.362;2024-01-11T11:19:02;1.90;75.70
5605;DHT22;9297;47.258;11.362;2024-01-11T11:21:29;2.10;74.20
5605;DHT22;9297;47.258;11.362;2024-01-11T11:23:56;2.20;72.30
5605;DHT22;9297;47.258;11.362;2024-01-11T11:26:26;2.30;72.40
5605;DHT22;9297;47.258;11.362;2024-01-11T11:28:53;2.40;71.90
5605;DHT22;9297;47.258;11.362;2024-01-11T11:31:35;2.50;70.90
5605;DHT22;9297;47.258;11.362;2024-01-11T11:34:04;2.70;70.50
5605;DHT22;9297;47.258;11.362;2024-01-11T11:36:32;2.50;69.60
5605;DHT22;9297;47.258;11.362;2024-01-11T11:39:00;2.80;69.60
5605;DHT22;9297;47.258;11.362;2024-01-11T11:41:30;2.90;68.30
5605;DHT22;9297;47.258;11.362;2024-01-11T11:44:00;3.00;68.30
5605;DHT22;9297;47.258;11.362;2024-01-11T11:46:28;3.00;68.20
5605;DHT22;9297;47.258;11.362;2024-01-11T11:48:55;3.10;68.80
5605;DHT22;9297;47.258;11.362;2024-01-11T11:51:24;3.00;68.40
5605;DHT22;9297;47.258;11.362;2024-01-11T11:53:55;3.00;67.00
5605;DHT22;9297;47.258;11.362;2024-01-11T11:56:22;3.00;67.20
5605;DHT22;9297;47.258;11.362;2024-01-11T11:58:50;2.90;66.80
5605;DHT22;9297;47.258;11.362;2024-01-11T12:01:17;2.70;68.10
5605;DHT22;9297;47.258;11.362;2024-01-11T12:03:45;2.70;68.60
5605;DHT22;9297;47.258;11.362;2024-01-11T12:06:13;2.70;69.20
5605;DHT22;9297;47.258;11.362;2024-01-11T12:08:43;2.60;68.80
5605;DHT22;9297;47.258;11.362;2024-01-11T12:11:13;2.40;70.00
5605;DHT22;9297;47.258;11.362;2024-01-11T12:13:40;2.30;70.10
5605;DHT22;9297;47.258;11.362;2024-01-11T12:16:08;2.20;70.60
5605;DHT22;9297;47.258;11.362;2024-01-11T12:18:34;2.30;71.30
5605;DHT22;9297;47.258;11.362;2024-01-11T12:21:02;2.30;71.70
5605;DHT22;9297;47.258;11.362;2024-01-11T12:23:29;2.20;72.50
5605;DHT22;9297;47.258;11.362;2024-01-11T12:25:58;2.30;71.50
5605;DHT22;9297;47.258;11.362;2024-01-11T12:28:25;2.30;71.10
5605;DHT22;9297;47.258;11.362;2024-01-11T12:30:52;2.30;71.50
5605;DHT22;9297;47.258;11.362;2024-01-11T12:33:19;2.40;71.30
5605;DHT22;9297;47.258;11.362;2024-01-11T12:35:47;2.40;71.50
5605;DHT22;9297;47.258;11.362;2024-01-11T12:38:14;2.40;70.80
5605;DHT22;9297;47.258;11.362;2024-01-11T12:40:41;2.50;70.60
5605;DHT22;9297;47.258;11.362;2024-01-11T12:43:11;2.40;70.50
5605;DHT22;9297;47.258;11.362;2024-01-11T12:45:38;2.60;70.80
5605;DHT22;9297;47.258;11.362;2024-01-11T12:48:07;2.60;69.70
5605;DHT22;9297;47.258;11.362;2024-01-11T12:50:35;2.50;69.00
5605;DHT22;9297;47.258;11.362;2024-01-11T12:53:07;2.70;69.10
5605;DHT22;9297;47.258;11.362;2024-01-11T12:55:34;2.70;67.70
5605;DHT22;9297;47.258;11.362;2024-01-11T12:58:21;3.00;68.40
5605;DHT22;9297;47.258;11.362;2024-01-11T13:00:48;3.20;67.10
5605;DHT22;9297;47.258;11.362;2024-01-11T13:03:15;3.30;66.90
5605;DHT22;9297;47.258;11.362;2024-01-11T13:05:42;3.40;66.10
5605;DHT22;9297;47.258;11.362;2024-01-11T13:08:10;3.50;66.20
5605;DHT22;9297;47.258;11.362;2024-01-11T13:10:37;3.40;65.50
5605;DHT22;9297;47.258;11.362;2024-01-11T13:13:05;3.50;65.20
5605;DHT22;9297;47.258;11.362;2024-01-11T13:15:37;3.40;65.90
5605;DHT22;9297;47.258;11.362;2024-01-11T13:18:04;3.30;66.50
5605;DHT22;9297;47.258;11.362;2024-01-11T13:20:31;3.30;66.30
5605;DHT22;9297;47.258;11.362;2024-01-11T13:23:14;3.20;65.70
5605;DHT22;9297;47.258;11.362;2024-01-11T13:25:42;3.10;66.00
5605;DHT22;9297;47.258;11.362;2024-01-11T13:28:10;3.20;66.40
5605;DHT22;9297;47.258;11.362;2024-01-11T13:30:39;3.10;66.20
5605;DHT22;9297;47.258;11.362;2024-01-11T13:33:07;3.20;66.60
5605;DHT22;9297;47.258;11.362;2024-01-11T13:35:34;3.10;66.40
5605;DHT22;9297;47.258;11.362;2024-01-11T13:38:02;3.10;66.40
5605;DHT22;9297;47.258;11.362;2024-01-11T13:40:29;3.10;67.60
5605;DHT22;9297;47.258;11.362;2024-01-11T13:42:56;3.10;69.20
5605;DHT22;9297;47.258;11.362;2024-01-11T13:45:23;3.20;69.50
5605;DHT22;9297;47.258;11.362;2024-01-11T13:47:51;3.30;67.80
5605;DHT22;9297;47.258;11.362;2024-01-11T13:50:18;3.30;67.80
5605;DHT22;9297;47.258;11.362;2024-01-11T13:52:47;3.40;67.40
5605;DHT22;9297;47.258;11.362;2024-01-11T13:55:14;3.40;68.90
5605;DHT22;9297;47.258;11.362;2024-01-11T13:57:41;3.40;69.60
5605;DHT22;9297;47.258;11.362;2024-01-11T14:00:10;3.50;68.50
5605;DHT22;9297;47.258;11.362;2024-01-11T14:02:37;3.50;68.90
5605;DHT22;9297;47.258;11.362;2024-01-11T14:05:06;3.40;70.00
5605;DHT22;9297;47.258;11.362;2024-01-11T14:07:33;3.50;73.00
5605;DHT22;9297;47.258;11.362;2024-01-11T14:10:00;3.60;72.50
5605;DHT22;9297;47.258;11.362;2024-01-11T14:12:27;3.90;70.90
5605;DHT22;9297;47.258;11.362;2024-01-11T14:14:54;4.20;72.70
5605;DHT22;9297;47.258;11.362;2024-01-11T14:17:21;3.90;70.40
5605;DHT22;9297;47.258;11.362;2024-01-11T14:19:48;3.60;72.70
5605;DHT22;9297;47.258;11.362;2024-01-11T14:22:16;3.40;74.00
5605;DHT22;9297;47.258;11.362;2024-01-11T14:24:43;3.20;75.20
5605;DHT22;9297;47.258;11.362;2024-01-11T14:27:10;3.20;74.90
5605;DHT22;9297;47.258;11.362;2024-01-11T14:29:37;2.90;76.40
5605;DHT22;9297;47.258;11.362;2024-01-11T14:32:05;2.70;78.40
5605;DHT22;9297;47.258;11.362;2024-01-11T14:34:32;2.60;79.80
5605;DHT22;9297;47.258;11.362;2024-01-11T14:36:59;2.50;80.50
5605;DHT22;9297;47.258;11.362;2024-01-11T14:39:27;2.30;79.90
5605;DHT22;9297;47.258;11.362;2024-01-11T14:41:54;2.20;80.90
5605;DHT22;9297;47.258;11.362;2024-01-11T14:44:21;2.20;80.10
5605;DHT22;9297;47.258;11.362;2024-01-11T14:46:48;2.10;80.30
5605;DHT22;9297;47.258;11.362;2024-01-11T14:49:15;2.00;81.00
5605;DHT22;9297;47.258;11.362;2024-01-11T14:51:42;2.00;81.30
5605;DHT22;9297;47.258;11.362;2024-01-11T14:54:09;1.90;81.40
5605;DHT22;9297;47.258;11.362;2024-01-11T14:56:37;2.00;82.10
5605;DHT22;9297;47.258;11.362;2024-01-11T14:59:04;1.90;81.80
5605;DHT22;9297;47.258;11.362;2024-01-11T15:01:31;1.80;82.10
5605;DHT22;9297;47.258;11.362;2024-01-11T15:03:58;1.70;82.70
5605;DHT22;9297;47.258;11.362;2024-01-11T15:06:25;1.60;83.30
5605;DHT22;9297;47.258;11.362;2024-01-11T15:08:53;1.50;84.00
5605;DHT22;9297;47.258;11.362;2024-01-11T15:11:20;1.50;83.60
5605;DHT22;9297;47.258;11.362;2024-01-11T15:13:48;1.50;83.90
5605;DHT22;9297;47.258;11.362;2024-01-11T15:16:15;1.50;84.80
5605;DHT22;9297;47.258;11.362;2024-01-11T15:18:42;1.50;84.40
5605;DHT22;9297;47.258;11.362;2024-01-11T15:21:09;1.50;85.00
5605;DHT22;9297;47.258;11.362;2024-01-11T15:23:36;1.40;84.70
5605;DHT22;9297;47.258;11.362;2024-01-11T15:26:03;1.30;84.80
5605;DHT22;9297;47.258;11.362;2024-01-11T15:28:30;1.30;85.10
5605;DHT22;9297;47.258;11.362;2024-01-11T15:30:59;1.20;85.10
5605;DHT22;9297;47.258;11.362;2024-01-11T15:33:26;1.20;85.80
5605;DHT22;9297;47.258;11.362;2024-01-11T15:35:54;1.00;86.10
5605;DHT22;9297;47.258;11.362;2024-01-11T15:38:21;0.90;86.40
5605;DHT22;9297;47.258;11.362;2024-01-11T15:40:48;0.90;86.80
5605;DHT22;9297;47.258;11.362;2024-01-11T15:43:15;0.80;87.50
5605;DHT22;9297;47.258;11.362;2024-01-11T15:45:41;0.70;88.60
5605;DHT22;9297;47.258;11.362;2024-01-11T15:48:10;0.70;87.90
5605;DHT22;9297;47.258;11.362;2024-01-11T15:50:37;0.70;87.90
5605;DHT22;9297;47.258;11.362;2024-01-11T15:53:04;0.70;87.90
5605;DHT22;9297;47.258;11.362;2024-01-11T15:55:31;0.70;88.10
5605;DHT22;9297;47.258;11.362;2024-01-11T15:57:58;0.60;88.10
5605;DHT22;9297;47.258;11.362;2024-01-11T16:00:28;0.50;87.70
5605;DHT22;9297;47.258;11.362;2024-01-11T16:02:55;0.50;87.50
5605;DHT22;9297;47.258;11.362;2024-01-11T16:05:23;0.50;88.10
5605;DHT22;9297;47.258;11.362;2024-01-11T16:07:51;0.40;88.30
5605;DHT22;9297;47.258;11.362;2024-01-11T16:10:18;0.50;88.30
5605;DHT22;9297;47.258;11.362;2024-01-11T16:12:45;0.40;88.00
5605;DHT22;9297;47.258;11.362;2024-01-11T16:15:12;0.20;87.80
5605;DHT22;9297;47.258;11.362;2024-01-11T16:17:39;0.10;88.30
5605;DHT22;9297;47.258;11.362;2024-01-11T16:20:07;0.10;89.00
5605;DHT22;9297;47.258;11.362;2024-01-11T16:22:36;0.00;89.20
5605;DHT22;9297;47.258;11.362;2024-01-11T16:25:03;0.00;89.20
5605;DHT22;9297;47.258;11.362;2024-01-11T16:27:30;-0.10;89.00
5605;DHT22;9297;47.258;11.362;2024-01-11T16:29:57;-0.20;90.20
5605;DHT22;9297;47.258;11.362;2024-01-11T16:32:27;-0.20;91.00
5605;DHT22;9297;47.258;11.362;2024-01-11T16:34:54;-0.20;91.00
5605;DHT22;9297;47.258;11.362;2024-01-11T16:37:21;-0.10;90.70
5605;DHT22;9297;47.258;11.362;2024-01-11T16:39:49;-0.20;91.10
5605;DHT22;9297;47.258;11.362;2024-01-11T16:42:16;-0.20;91.50
5605;DHT22;9297;47.258;11.362;2024-01-11T16:44:43;-0.20;92.60
5605;DHT22;9297;47.258;11.362;2024-01-11T16:47:10;-0.20;92.30
5605;DHT22;9297;47.258;11.362;2024-01-11T16:49:41;-0.10;91.20
5605;DHT22;9297;47.258;11.362;2024-01-11T16:52:08;-0.10;91.20
5605;DHT22;9297;47.258;11.362;2024-01-11T16:54:35;-0.20;91.10
5605;DHT22;9297;47.258;11.362;2024-01-11T16:57:03;-0.10;91.20
5605;DHT22;9297;47.258;11.362;2024-01-11T16:59:30;-0.10;91.10
5605;DHT22;9297;47.258;11.362;2024-01-11T17:01:57;-0.10;90.80
5605;DHT22;9297;47.258;11.362;2024-01-11T17:04:24;-0.10;91.40
5605;DHT22;9297;47.258;11.362;2024-01-11T17:06:52;-0.10;91.00
5605;DHT22;9297;47.258;11.362;2024-01-11T17:09:19;-0.10;91.10
5605;DHT22;9297;47.258;11.362;2024-01-11T17:11:46;-0.10;90.80
5605;DHT22;9297;47.258;11.362;2024-01-11T17:14:14;-0.20;89.80
5605;DHT22;9297;47.258;11.362;2024-01-11T17:16:41;-0.20;89.40
5605;DHT22;9297;47.258;11.362;2024-01-11T17:19:08;-0.30;89.70
5605;DHT22;9297;47.258;11.362;2024-01-11T17:21:35;-0.40;90.20